Time,TemperatureF,DewpointF,PressureIn,WindDirection,WindDirectionDegrees,WindSpeedMPH,WindSpeedGustMPH,Humidity,HourlyPrecipIn,Conditions,Clouds,dailyrainin,SolarRadiationWatts/m^2,SoftwareType,DateUTC
2013-03-16 00:00:00,53.1,42.4,29.80,SW,233,3.0,4.0,67,0.00,,,0.00,0,Wunderground v.1.15,2013-03-16 04:00:00,
2013-03-16 00:05:00,52.6,42.3,29.79,SSW,206,2.0,5.0,68,0.00,,,0.00,0,Wunderground v.1.15,2013-03-16 04:05:00,
2013-03-16 00:06:00,52.5,42.2,29.79,SSW,206,1.0,5.0,68,0.00,,,0.00,0,Wunderground v.1.15,2013-03-16 04:06:00,
2013-03-16 00:11:00,51.9,42.4,29.78,SW,217,1.0,3.0,70,0.00,,,0.00,0,Wunderground v.1.15,2013-03-16 04:11:00,
2013-03-16 00:16:00,51.5,42.4,29.78,SSW,213,1.0,3.0,71,0.00,,,0.00,0,Wunderground v.1.15,2013-03-16 04:16:00,
2013-03-16 00:21:00,51.6,42.5,29.78,SW,218,3.0,6.0,71,0.00,,,0.00,0,Wunderground v.1.15,2013-03-16 04:21:00,
2013-03-16 00:26:00,52.2,42.7,29.78,SW,229,3.0,6.0,70,0.00,,,0.00,0,Wunderground v.1.15,2013-03-16 04:26:00,
2013-03-16 00:31:00,52.3,42.8,29.78,SSW,210,3.0,5.0,70,0.00,,,0.00,0,Wunderground v.1.15,2013-03-16 04:31:00,
2013-03-16 00:36:00,52.4,42.9,29.78,SW,231,4.0,6.0,70,0.00,,,0.00,0,Wunderground v.1.15,2013-03-16 04:36:00,
2013-03-16 00:41:00,52.5,43.0,29.77,SW,219,2.0,5.0,70,0.00,,,0.00,0,Wunderground v.1.15,2013-03-16 04:41:00,
2013-03-16 00:46:00,52.5,43.0,29.77,SW,219,2.0,6.0,70,0.00,,,0.00,0,Wunderground v.1.15,2013-03-16 04:46:00,
2013-03-16 00:51:00,52.1,43.0,29.76,SW,217,2.0,5.0,71,0.00,,,0.00,0,Wunderground v.1.15,2013-03-16 04:51:00,
2013-03-16 00:56:00,51.7,42.6,29.76,SW,219,2.0,5.0,71,0.00,,,0.00,0,Wunderground v.1.15,2013-03-16 04:56:00,
2013-03-16 01:01:00,51.1,42.7,29.76,SW,218,1.0,4.0,73,0.00,,,0.00,0,Wunderground v.1.15,2013-03-16 05:01:00,
2013-03-16 01:06:00,51.0,43.0,29.75,SSW,212,0.0,5.0,74,0.00,,,0.00,0,Wunderground v.1.15,2013-03-16 05:06:00,
2013-03-16 01:12:00,51.2,43.2,29.76,SW,226,2.0,3.0,74,0.00,,,0.00,0,Wunderground v.1.15,2013-03-16 05:12:00,
2013-03-16 01:17:00,51.8,43.8,29.75,SW,219,1.0,3.0,74,0.00,,,0.00,0,Wunderground v.1.15,2013-03-16 05:17:00,
2013-03-16 01:22:00,52.9,44.8,29.75,SW,232,0.0,2.0,74,0.00,,,0.00,0,Wunderground v.1.15,2013-03-16 05:22:00,
2013-03-16 01:27:00,54.6,46.1,29.74,WSW,255,3.0,5.0,73,0.00,,,0.00,0,Wunderground v.1.15,2013-03-16 05:27:00,
2013-03-16 01:32:00,55.5,45.9,29.73,SSW,203,5.0,7.0,70,0.00,,,0.00,0,Wunderground v.1.15,2013-03-16 05:32:00,
2013-03-16 01:37:00,56.2,46.5,29.73,WSW,238,5.0,10.0,70,0.00,,,0.00,0,Wunderground v.1.15,2013-03-16 05:37:00,
2013-03-16 01:42:00,56.7,46.6,29.72,West,277,5.0,8.0,69,0.00,,,0.00,0,Wunderground v.1.15,2013-03-16 05:42:00,
2013-03-16 01:47:00,57.1,46.6,29.72,WSW,257,7.0,12.0,68,0.00,,,0.00,0,Wunderground v.1.15,2013-03-16 05:47:00,
2013-03-16 01:52:00,57.6,46.7,29.72,WSW,240,9.0,14.0,67,0.00,,,0.00,0,Wunderground v.1.15,2013-03-16 05:52:00,
2013-03-16 01:57:00,58.0,47.1,29.71,SW,229,12.0,14.0,67,0.00,,,0.00,0,Wunderground v.1.15,2013-03-16 05:57:00,
2013-03-16 02:02:00,58.4,47.1,29.71,West,273,6.0,12.0,66,0.00,,,0.00,0,Wunderground v.1.15,2013-03-16 06:02:00,
2013-03-16 02:07:00,58.7,47.4,29.71,WSW,242,6.0,13.0,66,0.00,,,0.00,0,Wunderground v.1.15,2013-03-16 06:07:00,
2013-03-16 02:12:00,59.0,47.2,29.70,West,260,11.0,16.0,65,0.00,,,0.00,0,Wunderground v.1.15,2013-03-16 06:12:00,
2013-03-16 02:17:00,59.3,47.5,29.71,WSW,243,9.0,16.0,65,0.00,,,0.00,0,Wunderground v.1.15,2013-03-16 06:17:00,
2013-03-16 02:22:00,59.5,47.3,29.70,West,261,13.0,16.0,64,0.00,,,0.00,0,Wunderground v.1.15,2013-03-16 06:22:00,
2013-03-16 02:27:00,59.8,47.6,29.70,SW,234,10.0,16.0,64,0.00,,,0.00,0,Wunderground v.1.15,2013-03-16 06:27:00,
2013-03-16 02:32:00,59.9,47.7,29.70,WSW,249,9.0,15.0,64,0.00,,,0.00,0,Wunderground v.1.15,2013-03-16 06:32:00,
2013-03-16 02:37:00,60.0,47.4,29.70,West,261,9.0,18.0,63,0.00,,,0.00,0,Wunderground v.1.15,2013-03-16 06:37:00,
2013-03-16 02:42:00,60.3,47.2,29.70,WSW,246,15.0,19.0,62,0.00,,,0.00,0,Wunderground v.1.15,2013-03-16 06:42:00,
2013-03-16 02:47:00,60.5,47.4,29.70,West,269,11.0,19.0,62,0.00,,,0.00,0,Wunderground v.1.15,2013-03-16 06:47:00,
2013-03-16 02:52:00,60.6,47.5,29.70,WNW,298,11.0,14.0,62,0.00,,,0.00,0,Wunderground v.1.15,2013-03-16 06:52:00,
2013-03-16 02:57:00,60.6,47.5,29.69,WSW,252,10.0,17.0,62,0.00,,,0.00,0,Wunderground v.1.15,2013-03-16 06:57:00,
2013-03-16 03:02:00,60.7,47.6,29.69,WSW,257,10.0,16.0,62,0.00,,,0.00,0,Wunderground v.1.15,2013-03-16 07:02:00,
2013-03-16 03:07:00,60.7,47.6,29.69,West,270,10.0,21.0,62,0.00,,,0.00,0,Wunderground v.1.15,2013-03-16 07:07:00,
2013-03-16 03:12:00,60.7,47.6,29.69,West,272,8.0,18.0,62,0.00,,,0.00,0,Wunderground v.1.15,2013-03-16 07:12:00,
2013-03-16 03:17:00,60.7,47.6,29.69,West,265,12.0,18.0,62,0.00,,,0.00,0,Wunderground v.1.15,2013-03-16 07:17:00,
2013-03-16 03:22:00,60.7,47.6,29.69,West,260,15.0,18.0,62,0.00,,,0.00,0,Wunderground v.1.15,2013-03-16 07:22:00,
2013-03-16 03:27:00,60.7,47.6,29.69,West,263,9.0,21.0,62,0.00,,,0.00,0,Wunderground v.1.15,2013-03-16 07:27:00,
2013-03-16 03:32:00,60.7,47.6,29.69,West,271,13.0,19.0,62,0.00,,,0.00,0,Wunderground v.1.15,2013-03-16 07:32:00,
2013-03-16 03:37:00,60.7,47.6,29.69,WSW,256,12.0,19.0,62,0.00,,,0.00,0,Wunderground v.1.15,2013-03-16 07:37:00,
2013-03-16 03:42:00,60.6,47.5,29.69,WSW,246,6.0,14.0,62,0.00,,,0.00,0,Wunderground v.1.15,2013-03-16 07:42:00,
2013-03-16 03:47:00,60.4,47.7,29.69,WSW,248,8.0,17.0,63,0.00,,,0.00,0,Wunderground v.1.15,2013-03-16 07:47:00,
2013-03-16 03:52:00,60.4,47.7,29.69,West,267,14.0,20.0,63,0.00,,,0.00,0,Wunderground v.1.15,2013-03-16 07:52:00,
2013-03-16 03:57:00,60.5,47.8,29.69,WSW,252,12.0,20.0,63,0.00,,,0.00,0,Wunderground v.1.15,2013-03-16 07:57:00,
2013-03-16 04:02:00,60.3,47.6,29.69,West,266,9.0,14.0,63,0.00,,,0.00,0,Wunderground v.1.15,2013-03-16 08:02:00,
2013-03-16 04:07:00,60.2,47.6,29.69,West,266,13.0,14.0,63,0.00,,,0.00,0,Wunderground v.1.15,2013-03-16 08:07:00,
2013-03-16 04:12:00,60.2,47.6,29.68,West,265,6.0,14.0,63,0.00,,,0.00,0,Wunderground v.1.15,2013-03-16 08:12:00,
2013-03-16 04:17:00,60.2,47.6,29.68,West,266,10.0,14.0,63,0.00,,,0.00,0,Wunderground v.1.15,2013-03-16 08:17:00,
2013-03-16 04:22:00,60.2,47.6,29.68,West,274,11.0,15.0,63,0.00,,,0.00,0,Wunderground v.1.15,2013-03-16 08:22:00,
2013-03-16 04:27:00,60.2,47.6,29.68,West,259,10.0,15.0,63,0.00,,,0.00,0,Wunderground v.1.15,2013-03-16 08:27:00,
2013-03-16 04:32:00,60.1,47.5,29.68,WSW,257,10.0,13.0,63,0.00,,,0.00,0,Wunderground v.1.15,2013-03-16 08:32:00,
2013-03-16 04:37:00,60.0,47.4,29.68,West,263,6.0,15.0,63,0.00,,,0.00,0,Wunderground v.1.15,2013-03-16 08:37:00,
2013-03-16 04:42:00,59.9,47.7,29.68,WSW,246,8.0,11.0,64,0.00,,,0.00,0,Wunderground v.1.15,2013-03-16 08:42:00,
2013-03-16 04:47:00,59.7,47.5,29.68,West,265,8.0,11.0,64,0.00,,,0.00,0,Wunderground v.1.15,2013-03-16 08:47:00,
2013-03-16 04:52:00,59.6,47.4,29.68,West,263,6.0,11.0,64,0.00,,,0.00,0,Wunderground v.1.15,2013-03-16 08:52:00,
2013-03-16 04:57:00,59.5,47.7,29.68,WSW,254,7.0,12.0,65,0.00,,,0.00,0,Wunderground v.1.15,2013-03-16 08:57:00,
2013-03-16 05:02:00,59.4,47.6,29.68,WSW,252,8.0,13.0,65,0.00,,,0.00,0,Wunderground v.1.15,2013-03-16 09:02:00,
2013-03-16 05:07:00,59.5,47.7,29.68,WSW,257,8.0,13.0,65,0.00,,,0.00,0,Wunderground v.1.15,2013-03-16 09:07:00,
2013-03-16 05:12:00,59.4,47.6,29.68,West,271,11.0,12.0,65,0.00,,,0.00,0,Wunderground v.1.15,2013-03-16 09:12:00,
2013-03-16 05:17:00,59.3,47.5,29.68,WSW,250,6.0,12.0,65,0.00,,,0.00,0,Wunderground v.1.15,2013-03-16 09:17:00,
2013-03-16 05:22:00,59.3,47.5,29.68,WSW,249,11.0,11.0,65,0.00,,,0.00,0,Wunderground v.1.15,2013-03-16 09:22:00,
2013-03-16 05:27:00,59.2,47.4,29.68,West,279,7.0,11.0,65,0.00,,,0.00,0,Wunderground v.1.15,2013-03-16 09:27:00,
2013-03-16 05:32:00,59.1,47.7,29.68,West,261,8.0,10.0,66,0.00,,,0.00,0,Wunderground v.1.15,2013-03-16 09:32:00,
2013-03-16 05:37:00,59.1,47.7,29.68,WSW,249,8.0,11.0,66,0.00,,,0.00,0,Wunderground v.1.15,2013-03-16 09:37:00,
2013-03-16 05:42:00,59.0,47.7,29.68,WSW,247,7.0,10.0,66,0.00,,,0.00,0,Wunderground v.1.15,2013-03-16 09:42:00,
2013-03-16 05:47:00,58.9,47.6,29.68,WSW,257,8.0,11.0,66,0.00,,,0.00,0,Wunderground v.1.15,2013-03-16 09:47:00,
2013-03-16 05:52:00,58.9,47.6,29.68,WSW,251,5.0,11.0,66,0.00,,,0.00,0,Wunderground v.1.15,2013-03-16 09:52:00,
2013-03-16 05:57:00,58.8,47.5,29.68,WSW,255,6.0,15.0,66,0.00,,,0.00,0,Wunderground v.1.15,2013-03-16 09:57:00,
2013-03-16 06:02:00,58.8,47.5,29.68,WSW,258,9.0,11.0,66,0.00,,,0.00,0,Wunderground v.1.15,2013-03-16 10:02:00,
2013-03-16 06:08:00,58.7,47.8,29.68,WSW,252,5.0,11.0,67,0.00,,,0.00,0,Wunderground v.1.15,2013-03-16 10:08:00,
2013-03-16 06:13:00,58.7,47.8,29.68,WSW,257,6.0,10.0,67,0.00,,,0.00,0,Wunderground v.1.15,2013-03-16 10:13:00,
2013-03-16 06:18:00,58.6,47.7,29.68,WSW,253,5.0,10.0,67,0.00,,,0.00,0,Wunderground v.1.15,2013-03-16 10:18:00,
2013-03-16 06:23:00,58.6,47.7,29.68,WSW,250,7.0,10.0,67,0.00,,,0.00,0,Wunderground v.1.15,2013-03-16 10:23:00,
2013-03-16 06:28:00,58.6,47.7,29.68,West,262,9.0,13.0,67,0.00,,,0.00,0,Wunderground v.1.15,2013-03-16 10:28:00,
2013-03-16 06:33:00,58.7,47.8,29.68,West,265,6.0,11.0,67,0.00,,,0.00,0,Wunderground v.1.15,2013-03-16 10:33:00,
2013-03-16 06:38:00,58.9,48.0,29.68,West,262,7.0,13.0,67,0.00,,,0.00,0,Wunderground v.1.15,2013-03-16 10:38:00,
2013-03-16 06:43:00,59.1,47.7,29.68,West,268,10.0,12.0,66,0.00,,,0.00,0,Wunderground v.1.15,2013-03-16 10:43:00,
2013-03-16 06:48:00,59.3,47.9,29.68,West,269,10.0,12.0,66,0.00,,,0.00,0,Wunderground v.1.15,2013-03-16 10:48:00,
2013-03-16 06:53:00,59.4,48.0,29.68,West,272,6.0,13.0,66,0.00,,,0.00,0,Wunderground v.1.15,2013-03-16 10:53:00,
2013-03-16 06:58:00,59.5,47.7,29.68,West,265,10.0,13.0,65,0.00,,,0.00,0,Wunderground v.1.15,2013-03-16 10:58:00,
2013-03-16 07:03:00,59.7,47.9,29.68,West,277,9.0,12.0,65,0.00,,,0.00,0,Wunderground v.1.15,2013-03-16 11:03:00,
2013-03-16 07:08:00,59.8,48.0,29.69,West,262,11.0,14.0,65,0.00,,,0.00,0,Wunderground v.1.15,2013-03-16 11:08:00,
2013-03-16 07:13:00,59.7,47.9,29.69,WSW,246,11.0,11.0,65,0.00,,,0.00,0,Wunderground v.1.15,2013-03-16 11:13:00,
2013-03-16 07:18:00,59.8,47.6,29.68,West,267,10.0,15.0,64,0.00,,,0.00,0,Wunderground v.1.15,2013-03-16 11:18:00,
2013-03-16 07:23:00,59.8,47.6,29.69,WSW,253,8.0,13.0,64,0.00,,,0.00,0,Wunderground v.1.15,2013-03-16 11:23:00,
2013-03-16 07:28:00,59.8,47.6,29.69,WSW,254,8.0,13.0,64,0.00,,,0.00,0,Wunderground v.1.15,2013-03-16 11:28:00,
2013-03-16 07:33:00,59.8,47.6,29.69,West,267,11.0,15.0,64,0.00,,,0.00,0,Wunderground v.1.15,2013-03-16 11:33:00,
2013-03-16 07:38:00,59.8,47.6,29.69,West,275,11.0,15.0,64,0.00,,,0.00,0,Wunderground v.1.15,2013-03-16 11:38:00,
2013-03-16 07:43:00,59.9,47.7,29.69,West,259,9.0,16.0,64,0.00,,,0.00,0,Wunderground v.1.15,2013-03-16 11:43:00,
2013-03-16 07:48:00,59.9,47.7,29.69,West,278,7.0,16.0,64,0.00,,,0.00,0,Wunderground v.1.15,2013-03-16 11:48:00,
2013-03-16 07:53:00,59.9,47.7,29.69,WSW,248,9.0,13.0,64,0.00,,,0.00,5,Wunderground v.1.15,2013-03-16 11:53:00,
2013-03-16 07:58:00,59.8,47.6,29.69,West,272,7.0,13.0,64,0.00,,,0.00,7,Wunderground v.1.15,2013-03-16 11:58:00,
2013-03-16 08:03:00,59.8,47.6,29.69,West,273,7.0,12.0,64,0.00,,,0.00,12,Wunderground v.1.15,2013-03-16 12:03:00,
2013-03-16 08:08:00,59.8,47.6,29.69,WSW,258,10.0,13.0,64,0.00,,,0.00,18,Wunderground v.1.15,2013-03-16 12:08:00,
2013-03-16 08:13:00,59.8,47.6,29.69,WNW,287,13.0,13.0,64,0.00,,,0.00,21,Wunderground v.1.15,2013-03-16 12:13:00,
2013-03-16 08:18:00,59.9,47.7,29.69,West,262,9.0,16.0,64,0.00,,,0.00,30,Wunderground v.1.15,2013-03-16 12:18:00,
2013-03-16 08:23:00,60.0,47.4,29.69,West,271,10.0,15.0,63,0.00,,,0.00,39,Wunderground v.1.15,2013-03-16 12:23:00,
2013-03-16 08:28:00,60.0,47.4,29.69,West,268,6.0,15.0,63,0.00,,,0.00,44,Wunderground v.1.15,2013-03-16 12:28:00,
2013-03-16 08:33:00,60.0,47.4,29.69,West,270,7.0,13.0,63,0.00,,,0.00,49,Wunderground v.1.15,2013-03-16 12:33:00,
2013-03-16 08:38:00,60.1,47.5,29.69,West,264,11.0,13.0,63,0.00,,,0.00,58,Wunderground v.1.15,2013-03-16 12:38:00,
2013-03-16 08:43:00,60.1,47.5,29.70,WSW,252,9.0,14.0,63,0.00,,,0.00,67,Wunderground v.1.15,2013-03-16 12:43:00,
2013-03-16 08:48:00,60.3,47.6,29.70,West,263,7.0,14.0,63,0.00,,,0.00,76,Wunderground v.1.15,2013-03-16 12:48:00,
2013-03-16 08:53:00,60.4,47.3,29.70,West,267,6.0,12.0,62,0.00,,,0.00,91,Wunderground v.1.15,2013-03-16 12:53:00,
2013-03-16 08:58:00,60.5,47.4,29.70,WSW,253,7.0,13.0,62,0.00,,,0.00,104,Wunderground v.1.15,2013-03-16 12:58:00,
2013-03-16 09:03:00,60.7,47.6,29.70,WSW,247,10.0,13.0,62,0.00,,,0.00,130,Wunderground v.1.15,2013-03-16 13:03:00,
2013-03-16 09:08:00,60.8,47.7,29.69,West,273,8.0,15.0,62,0.00,,,0.00,142,Wunderground v.1.15,2013-03-16 13:08:00,
2013-03-16 09:13:00,61.1,47.5,29.69,West,274,10.0,16.0,61,0.00,,,0.00,162,Wunderground v.1.15,2013-03-16 13:13:00,
2013-03-16 09:18:00,61.3,47.7,29.69,West,269,13.0,17.0,61,0.00,,,0.00,160,Wunderground v.1.15,2013-03-16 13:18:00,
2013-03-16 09:23:00,61.4,47.4,29.69,West,260,14.0,21.0,60,0.00,,,0.00,183,Wunderground v.1.15,2013-03-16 13:23:00,
2013-03-16 09:28:00,61.7,47.7,29.70,West,269,11.0,21.0,60,0.00,,,0.00,179,Wunderground v.1.15,2013-03-16 13:28:00,
2013-03-16 09:33:00,61.8,47.8,29.69,WSW,248,8.0,18.0,60,0.00,,,0.00,202,Wunderground v.1.15,2013-03-16 13:33:00,
2013-03-16 09:38:00,61.9,47.9,29.69,West,265,8.0,18.0,60,0.00,,,0.00,195,Wunderground v.1.15,2013-03-16 13:38:00,
2013-03-16 09:43:00,62.1,47.6,29.69,WSW,258,17.0,18.0,59,0.00,,,0.00,292,Wunderground v.1.15,2013-03-16 13:43:00,
2013-03-16 09:48:00,62.6,47.6,29.69,West,277,8.0,18.0,58,0.00,,,0.00,292,Wunderground v.1.15,2013-03-16 13:48:00,
2013-03-16 09:53:00,62.9,47.9,29.69,West,261,10.0,22.0,58,0.00,,,0.00,352,Wunderground v.1.15,2013-03-16 13:53:00,
2013-03-16 09:58:00,63.2,47.7,29.69,West,263,10.0,22.0,57,0.00,,,0.00,320,Wunderground v.1.15,2013-03-16 13:58:00,
2013-03-16 10:03:00,63.6,48.1,29.69,WSW,256,10.0,16.0,57,0.00,,,0.00,397,Wunderground v.1.15,2013-03-16 14:03:00,
2013-03-16 10:08:00,63.9,47.9,29.69,WNW,288,14.0,23.0,56,0.00,,,0.00,334,Wunderground v.1.15,2013-03-16 14:08:00,
2013-03-16 10:13:00,64.1,48.1,29.69,West,272,11.0,19.0,56,0.00,,,0.00,329,Wunderground v.1.15,2013-03-16 14:13:00,
2013-03-16 10:18:00,64.3,47.8,29.69,WNW,285,16.0,20.0,55,0.00,,,0.00,352,Wunderground v.1.15,2013-03-16 14:18:00,
2013-03-16 10:23:00,64.4,47.9,29.69,WNW,284,11.0,20.0,55,0.00,,,0.00,380,Wunderground v.1.15,2013-03-16 14:23:00,
2013-03-16 10:28:00,64.7,48.2,29.69,West,266,13.0,20.0,55,0.00,,,0.00,448,Wunderground v.1.15,2013-03-16 14:28:00,
2013-03-16 10:33:00,65.1,48.5,29.69,WSW,253,11.0,16.0,55,0.00,,,0.00,432,Wunderground v.1.15,2013-03-16 14:33:00,
2013-03-16 10:38:00,65.5,48.4,29.69,WNW,297,11.0,19.0,54,0.00,,,0.00,420,Wunderground v.1.15,2013-03-16 14:38:00,
2013-03-16 10:43:00,65.4,48.3,29.69,West,275,10.0,19.0,54,0.00,,,0.00,339,Wunderground v.1.15,2013-03-16 14:43:00,
2013-03-16 10:48:00,65.6,48.0,29.68,West,269,19.0,20.0,53,0.00,,,0.00,427,Wunderground v.1.15,2013-03-16 14:48:00,
2013-03-16 10:53:00,65.6,48.0,29.69,WNW,296,13.0,28.0,53,0.00,,,0.00,485,Wunderground v.1.15,2013-03-16 14:53:00,
2013-03-16 10:58:00,65.8,48.2,29.68,West,275,11.0,28.0,53,0.00,,,0.00,513,Wunderground v.1.15,2013-03-16 14:58:00,
2013-03-16 11:03:00,66.0,48.4,29.69,West,281,12.0,23.0,53,0.00,,,0.00,448,Wunderground v.1.15,2013-03-16 15:03:00,
2013-03-16 11:08:00,66.3,48.7,29.68,WNW,284,15.0,23.0,53,0.00,,,0.00,512,Wunderground v.1.15,2013-03-16 15:08:00,
2013-03-16 11:13:00,66.4,48.2,29.69,West,263,14.0,21.0,52,0.00,,,0.00,543,Wunderground v.1.15,2013-03-16 15:13:00,
2013-03-16 11:18:00,66.7,48.5,29.69,West,271,15.0,22.0,52,0.00,,,0.00,552,Wunderground v.1.15,2013-03-16 15:18:00,
2013-03-16 11:23:00,67.0,48.3,29.69,West,277,10.0,25.0,51,0.00,,,0.00,508,Wunderground v.1.15,2013-03-16 15:23:00,
2013-03-16 11:28:00,67.2,49.0,29.69,WNW,288,8.0,25.0,52,0.00,,,0.00,605,Wunderground v.1.15,2013-03-16 15:28:00,
2013-03-16 11:34:00,67.7,49.4,29.69,West,271,5.0,18.0,52,0.00,,,0.00,598,Wunderground v.1.15,2013-03-16 15:34:00,
2013-03-16 11:39:00,68.2,49.4,29.69,WNW,283,10.0,18.0,51,0.00,,,0.00,531,Wunderground v.1.15,2013-03-16 15:39:00,
2013-03-16 11:44:00,68.4,49.0,29.68,WNW,282,10.0,20.0,50,0.00,,,0.00,617,Wunderground v.1.15,2013-03-16 15:44:00,
2013-03-16 11:49:00,68.6,49.2,29.68,WNW,288,13.0,23.0,50,0.00,,,0.00,615,Wunderground v.1.15,2013-03-16 15:49:00,
2013-03-16 11:53:00,68.7,49.3,29.68,WNW,286,16.0,20.0,50,0.00,,,0.00,691,Wunderground v.1.15,2013-03-16 15:53:00,
2013-03-16 11:58:00,68.9,48.9,29.69,WNW,294,16.0,22.0,49,0.00,,,0.00,657,Wunderground v.1.15,2013-03-16 15:58:00,
2013-03-16 12:04:00,68.9,49.5,29.69,WNW,292,13.0,17.0,50,0.00,,,0.00,617,Wunderground v.1.15,2013-03-16 16:04:00,
2013-03-16 12:08:00,68.9,48.9,29.69,West,279,8.0,19.0,49,0.00,,,0.00,628,Wunderground v.1.15,2013-03-16 16:08:00,
2013-03-16 12:13:00,69.3,49.3,29.69,West,263,15.0,18.0,49,0.00,,,0.00,594,Wunderground v.1.15,2013-03-16 16:13:00,
2013-03-16 12:18:00,69.5,49.5,29.69,West,274,9.0,22.0,49,0.00,,,0.00,559,Wunderground v.1.15,2013-03-16 16:18:00,
2013-03-16 12:24:00,69.6,49.0,29.69,West,269,11.0,20.0,48,0.00,,,0.00,561,Wunderground v.1.15,2013-03-16 16:24:00,
2013-03-16 12:29:00,69.9,49.3,29.69,West,279,11.0,20.0,48,0.00,,,0.00,578,Wunderground v.1.15,2013-03-16 16:29:00,
2013-03-16 12:34:00,70.0,50.0,29.69,NW,308,11.0,18.0,49,0.00,,,0.00,561,Wunderground v.1.15,2013-03-16 16:34:00,
2013-03-16 12:39:00,70.1,49.5,29.69,WNW,290,18.0,20.0,48,0.00,,,0.00,499,Wunderground v.1.15,2013-03-16 16:39:00,
2013-03-16 12:44:00,70.1,49.5,29.69,West,270,16.0,19.0,48,0.00,,,0.00,534,Wunderground v.1.15,2013-03-16 16:44:00,
2013-03-16 12:49:00,70.5,49.9,29.70,NW,304,9.0,21.0,48,0.00,,,0.00,555,Wunderground v.1.15,2013-03-16 16:49:00,
2013-03-16 12:54:00,70.6,49.4,29.70,West,278,11.0,23.0,47,0.00,,,0.00,631,Wunderground v.1.15,2013-03-16 16:54:00,
2013-03-16 12:59:00,70.8,49.6,29.71,WNW,284,14.0,23.0,47,0.00,,,0.00,691,Wunderground v.1.15,2013-03-16 16:59:00,
2013-03-16 13:04:00,71.0,49.7,29.70,WNW,299,16.0,19.0,47,0.00,,,0.00,724,Wunderground v.1.15,2013-03-16 17:04:00,
2013-03-16 13:09:00,71.3,50.0,29.71,NW,304,13.0,14.0,47,0.00,,,0.00,701,Wunderground v.1.15,2013-03-16 17:09:00,
2013-03-16 13:14:00,71.5,49.6,29.71,West,270,18.0,22.0,46,0.00,,,0.00,719,Wunderground v.1.15,2013-03-16 17:14:00,
2013-03-16 13:19:00,71.7,49.8,29.71,NNW,332,13.0,13.0,46,0.00,,,0.00,751,Wunderground v.1.15,2013-03-16 17:19:00,
2013-03-16 13:24:00,71.6,49.7,29.71,NW,314,11.0,22.0,46,0.00,,,0.00,448,Wunderground v.1.15,2013-03-16 17:24:00,
2013-03-16 13:29:00,72.0,50.7,29.71,NW,304,7.0,11.0,47,0.00,,,0.00,387,Wunderground v.1.15,2013-03-16 17:29:00,
2013-03-16 13:34:00,71.4,49.5,29.72,NW,304,12.0,23.0,46,0.00,,,0.00,380,Wunderground v.1.15,2013-03-16 17:34:00,
2013-03-16 13:39:00,70.4,49.2,29.72,WNW,296,11.0,13.0,47,0.00,,,0.00,262,Wunderground v.1.15,2013-03-16 17:39:00,
2013-03-16 13:44:00,69.9,49.9,29.72,NW,318,8.0,18.0,49,0.00,,,0.00,334,Wunderground v.1.15,2013-03-16 17:44:00,
2013-03-16 13:49:00,70.0,50.5,29.73,NNW,338,5.0,11.0,50,0.00,,,0.00,394,Wunderground v.1.15,2013-03-16 17:49:00,
2013-03-16 13:54:00,70.0,50.0,29.72,NW,315,15.0,21.0,49,0.00,,,0.00,364,Wunderground v.1.15,2013-03-16 17:54:00,
2013-03-16 13:59:00,69.8,49.8,29.73,NW,309,15.0,15.0,49,0.00,,,0.00,348,Wunderground v.1.15,2013-03-16 17:59:00,
2013-03-16 14:04:00,69.7,50.2,29.73,WNW,302,6.0,17.0,50,0.00,,,0.00,659,Wunderground v.1.15,2013-03-16 18:04:00,
2013-03-16 14:09:00,70.3,50.2,29.73,NW,309,14.0,14.0,49,0.00,,,0.00,635,Wunderground v.1.15,2013-03-16 18:09:00,
2013-03-16 14:14:00,70.4,50.3,29.73,NW,319,14.0,17.0,49,0.00,,,0.00,462,Wunderground v.1.15,2013-03-16 18:14:00,
2013-03-16 14:19:00,70.2,50.1,29.73,NW,309,10.0,14.0,49,0.00,,,0.00,457,Wunderground v.1.15,2013-03-16 18:19:00,
2013-03-16 14:24:00,70.0,50.5,29.73,WNW,290,11.0,15.0,50,0.00,,,0.00,357,Wunderground v.1.15,2013-03-16 18:24:00,
2013-03-16 14:29:00,70.4,51.4,29.73,NW,306,3.0,8.0,51,0.00,,,0.00,381,Wunderground v.1.15,2013-03-16 18:29:00,
2013-03-16 14:34:00,70.9,51.3,29.73,NNW,338,11.0,16.0,50,0.00,,,0.00,527,Wunderground v.1.15,2013-03-16 18:34:00,
2013-03-16 14:39:00,70.8,50.7,29.73,NW,316,15.0,15.0,49,0.00,,,0.00,671,Wunderground v.1.15,2013-03-16 18:39:00,
2013-03-16 14:44:00,70.6,50.5,29.73,WNW,299,4.0,19.0,49,0.00,,,0.00,552,Wunderground v.1.15,2013-03-16 18:44:00,
2013-03-16 14:49:00,70.6,50.0,29.73,NNW,328,13.0,18.0,48,0.00,,,0.00,274,Wunderground v.1.15,2013-03-16 18:49:00,
2013-03-16 14:54:00,70.2,50.1,29.73,NW,306,11.0,18.0,49,0.00,,,0.00,267,Wunderground v.1.15,2013-03-16 18:54:00,
2013-03-16 14:59:00,69.8,49.2,29.73,NW,311,11.0,13.0,48,0.00,,,0.00,272,Wunderground v.1.15,2013-03-16 18:59:00,
2013-03-16 15:04:00,69.6,49.6,29.73,NW,323,14.0,22.0,49,0.00,,,0.00,425,Wunderground v.1.15,2013-03-16 19:04:00,
2013-03-16 15:09:00,69.7,49.7,29.73,North,360,14.0,14.0,49,0.00,,,0.00,650,Wunderground v.1.15,2013-03-16 19:09:00,
2013-03-16 15:14:00,70.2,49.6,29.73,NW,325,15.0,17.0,48,0.00,,,0.00,675,Wunderground v.1.15,2013-03-16 19:14:00,
2013-03-16 15:19:00,70.7,49.5,29.73,NNW,336,9.0,15.0,47,0.00,,,0.00,761,Wunderground v.1.15,2013-03-16 19:19:00,
2013-03-16 15:24:00,71.3,49.4,29.73,NW,312,16.0,21.0,46,0.00,,,0.00,717,Wunderground v.1.15,2013-03-16 19:24:00,
2013-03-16 15:29:00,71.5,49.6,29.72,NW,308,6.0,11.0,46,0.00,,,0.00,408,Wunderground v.1.15,2013-03-16 19:29:00,
2013-03-16 15:34:00,71.3,50.0,29.73,NW,313,7.0,14.0,47,0.00,,,0.00,431,Wunderground v.1.15,2013-03-16 19:34:00,
2013-03-16 15:39:00,70.9,49.1,29.73,NNW,327,10.0,12.0,46,0.00,,,0.00,294,Wunderground v.1.15,2013-03-16 19:39:00,
2013-03-16 15:44:00,70.7,50.0,29.73,NW,311,14.0,18.0,48,0.00,,,0.00,617,Wunderground v.1.15,2013-03-16 19:44:00,
2013-03-16 15:49:00,70.6,50.0,29.73,NW,306,7.0,10.0,48,0.00,,,0.00,584,Wunderground v.1.15,2013-03-16 19:49:00,
2013-03-16 15:54:00,70.8,49.0,29.73,NNW,336,11.0,15.0,46,0.00,,,0.00,501,Wunderground v.1.15,2013-03-16 19:54:00,
2013-03-16 15:59:00,70.8,49.0,29.73,WNW,301,10.0,16.0,46,0.00,,,0.00,587,Wunderground v.1.15,2013-03-16 19:59:00,
2013-03-16 16:04:00,70.6,48.8,29.74,NNW,333,9.0,19.0,46,0.00,,,0.00,230,Wunderground v.1.15,2013-03-16 20:04:00,
2013-03-16 16:09:00,70.5,48.7,29.74,NW,317,14.0,15.0,46,0.00,,,0.00,566,Wunderground v.1.15,2013-03-16 20:09:00,
2013-03-16 16:14:00,70.6,48.8,29.74,NW,315,9.0,15.0,46,0.00,,,0.00,466,Wunderground v.1.15,2013-03-16 20:14:00,
2013-03-16 16:19:00,70.4,48.0,29.74,WNW,299,11.0,12.0,45,0.00,,,0.00,302,Wunderground v.1.15,2013-03-16 20:19:00,
2013-03-16 16:24:00,70.3,47.9,29.74,NW,318,16.0,16.0,45,0.00,,,0.00,490,Wunderground v.1.15,2013-03-16 20:24:00,
2013-03-16 16:29:00,70.4,48.6,29.74,NNW,338,10.0,11.0,46,0.00,,,0.00,457,Wunderground v.1.15,2013-03-16 20:29:00,
2013-03-16 16:34:00,70.5,49.3,29.75,NW,311,8.0,15.0,47,0.00,,,0.00,425,Wunderground v.1.15,2013-03-16 20:34:00,
2013-03-16 16:39:00,70.1,48.9,29.75,NW,321,14.0,16.0,47,0.00,,,0.00,255,Wunderground v.1.15,2013-03-16 20:39:00,
2013-03-16 16:44:00,69.6,48.5,29.75,WNW,294,11.0,18.0,47,0.00,,,0.00,255,Wunderground v.1.15,2013-03-16 20:44:00,
2013-03-16 16:49:00,69.3,48.2,29.75,NW,311,9.0,12.0,47,0.00,,,0.00,341,Wunderground v.1.15,2013-03-16 20:49:00,
2013-03-16 16:54:00,69.1,48.6,29.75,NW,326,8.0,16.0,48,0.00,,,0.00,346,Wunderground v.1.15,2013-03-16 20:54:00,
2013-03-16 16:59:00,69.3,47.6,29.75,NNW,343,10.0,16.0,46,0.00,,,0.00,376,Wunderground v.1.15,2013-03-16 20:59:00,
2013-03-16 17:04:00,69.5,47.8,29.75,NW,313,11.0,16.0,46,0.00,,,0.00,371,Wunderground v.1.15,2013-03-16 21:04:00,
2013-03-16 17:09:00,69.4,48.3,29.76,NNW,332,7.0,9.0,47,0.00,,,0.00,387,Wunderground v.1.15,2013-03-16 21:09:00,
2013-03-16 17:14:00,69.3,48.2,29.76,North,355,13.0,15.0,47,0.00,,,0.00,520,Wunderground v.1.15,2013-03-16 21:14:00,
2013-03-16 17:19:00,69.2,48.1,29.76,NW,315,11.0,13.0,47,0.00,,,0.00,443,Wunderground v.1.15,2013-03-16 21:19:00,
2013-03-16 17:24:00,68.8,47.7,29.76,NNW,342,12.0,16.0,47,0.00,,,0.00,230,Wunderground v.1.15,2013-03-16 21:24:00,
2013-03-16 17:29:00,68.1,47.7,29.77,NNE,16,12.0,16.0,48,0.00,,,0.00,207,Wunderground v.1.15,2013-03-16 21:29:00,
2013-03-16 17:34:00,67.5,48.7,29.77,North,5,10.0,17.0,51,0.00,,,0.00,241,Wunderground v.1.15,2013-03-16 21:34:00,
2013-03-16 17:39:00,65.5,48.9,29.78,NNE,27,13.0,13.0,55,0.00,,,0.00,339,Wunderground v.1.15,2013-03-16 21:39:00,
2013-03-16 17:44:00,64.9,48.3,29.78,North,355,12.0,18.0,55,0.00,,,0.00,167,Wunderground v.1.15,2013-03-16 21:44:00,
2013-03-16 17:49:00,64.1,47.6,29.78,North,5,15.0,15.0,55,0.00,,,0.00,146,Wunderground v.1.15,2013-03-16 21:49:00,
2013-03-16 17:54:00,63.6,47.6,29.79,NE,36,8.0,17.0,56,0.00,,,0.00,172,Wunderground v.1.15,2013-03-16 21:54:00,
2013-03-16 17:59:00,63.3,47.8,29.79,North,360,9.0,11.0,57,0.00,,,0.00,149,Wunderground v.1.15,2013-03-16 21:59:00,
2013-03-16 18:04:00,63.2,48.2,29.79,NNE,18,10.0,14.0,58,0.00,,,0.00,132,Wunderground v.1.15,2013-03-16 22:04:00,
2013-03-16 18:09:00,63.1,47.6,29.80,NE,36,10.0,14.0,57,0.00,,,0.00,107,Wunderground v.1.15,2013-03-16 22:09:00,
2013-03-16 18:14:00,62.9,47.4,29.80,NNE,19,11.0,16.0,57,0.00,,,0.00,83,Wunderground v.1.15,2013-03-16 22:14:00,
2013-03-16 18:19:00,62.7,47.2,29.81,NNE,20,8.0,12.0,57,0.00,,,0.00,77,Wunderground v.1.15,2013-03-16 22:19:00,
2013-03-16 18:24:00,62.3,46.9,29.81,NE,41,7.0,16.0,57,0.00,,,0.00,65,Wunderground v.1.15,2013-03-16 22:24:00,
2013-03-16 18:29:00,62.0,47.0,29.82,North,355,9.0,13.0,58,0.00,,,0.00,70,Wunderground v.1.15,2013-03-16 22:29:00,
2013-03-16 18:34:00,61.8,46.4,29.82,NNE,21,10.0,17.0,57,0.00,,,0.00,72,Wunderground v.1.15,2013-03-16 22:34:00,
2013-03-16 18:39:00,61.6,46.7,29.83,NNE,19,9.0,15.0,58,0.00,,,0.00,72,Wunderground v.1.15,2013-03-16 22:39:00,
2013-03-16 18:44:00,61.3,46.4,29.83,NE,34,10.0,16.0,58,0.00,,,0.00,62,Wunderground v.1.15,2013-03-16 22:44:00,
2013-03-16 18:49:00,60.6,46.2,29.83,NNE,33,11.0,14.0,59,0.00,,,0.00,49,Wunderground v.1.15,2013-03-16 22:49:00,
2013-03-16 18:54:00,60.1,45.7,29.84,NE,36,14.0,17.0,59,0.00,,,0.00,35,Wunderground v.1.15,2013-03-16 22:54:00,
2013-03-16 18:59:00,59.6,45.7,29.84,NNE,29,16.0,16.0,60,0.00,,,0.00,28,Wunderground v.1.15,2013-03-16 22:59:00,
2013-03-16 19:04:00,59.2,45.8,29.84,North,360,8.0,20.0,61,0.00,,,0.00,19,Wunderground v.1.15,2013-03-16 23:04:00,
2013-03-16 19:09:00,58.6,44.8,29.84,NNE,25,14.0,16.0,60,0.00,,,0.00,14,Wunderground v.1.15,2013-03-16 23:09:00,
2013-03-16 19:14:00,58.1,45.1,29.84,NNE,26,9.0,16.0,62,0.00,,,0.00,18,Wunderground v.1.15,2013-03-16 23:14:00,
2013-03-16 19:19:00,57.6,44.7,29.84,North,5,12.0,16.0,62,0.00,,,0.00,18,Wunderground v.1.15,2013-03-16 23:19:00,
2013-03-16 19:24:00,57.2,44.3,29.84,NE,34,8.0,16.0,62,0.00,,,0.00,12,Wunderground v.1.15,2013-03-16 23:24:00,
2013-03-16 19:29:00,56.8,44.3,29.84,NNE,25,8.0,11.0,63,0.00,,,0.00,12,Wunderground v.1.15,2013-03-16 23:29:00,
2013-03-16 19:34:00,56.6,44.6,29.84,North,355,8.0,14.0,64,0.00,,,0.00,12,Wunderground v.1.15,2013-03-16 23:34:00,
2013-03-16 19:39:00,56.3,44.3,29.85,NNE,13,9.0,11.0,64,0.00,,,0.00,7,Wunderground v.1.15,2013-03-16 23:39:00,
2013-03-16 19:44:00,56.1,44.5,29.85,NNE,30,6.0,12.0,65,0.00,,,0.00,0,Wunderground v.1.15,2013-03-16 23:44:00,
2013-03-16 19:49:00,55.8,44.2,29.84,NE,34,5.0,10.0,65,0.00,,,0.00,0,Wunderground v.1.15,2013-03-16 23:49:00,
2013-03-16 19:54:00,55.7,44.1,29.85,NE,40,2.0,13.0,65,0.00,,,0.00,0,Wunderground v.1.15,2013-03-16 23:54:00,
2013-03-16 19:59:00,55.3,44.1,29.85,ENE,64,5.0,9.0,66,0.00,,,0.00,0,Wunderground v.1.15,2013-03-16 23:59:00,
2013-03-16 20:04:00,54.8,43.7,29.85,NE,51,10.0,12.0,66,0.00,,,0.00,0,Wunderground v.1.15,2013-03-17 00:04:00,
2013-03-16 20:09:00,54.4,43.7,29.85,NE,51,6.0,8.0,67,0.00,,,0.00,0,Wunderground v.1.15,2013-03-17 00:09:00,
2013-03-16 20:15:00,54.0,43.3,29.86,NE,47,6.0,10.0,67,0.00,,,0.00,0,Wunderground v.1.15,2013-03-17 00:15:00,
2013-03-16 20:20:00,53.7,43.4,29.86,NE,37,7.0,8.0,68,0.00,,,0.00,0,Wunderground v.1.15,2013-03-17 00:20:00,
2013-03-16 20:24:00,53.4,43.1,29.87,NE,38,6.0,12.0,68,0.00,,,0.00,0,Wunderground v.1.15,2013-03-17 00:24:00,
2013-03-16 20:30:00,53.0,43.1,29.87,NE,46,5.0,7.0,69,0.00,,,0.00,0,Wunderground v.1.15,2013-03-17 00:30:00,
2013-03-16 20:35:00,52.6,42.7,29.88,NE,40,6.0,9.0,69,0.00,,,0.00,0,Wunderground v.1.15,2013-03-17 00:35:00,
2013-03-16 20:40:00,52.4,42.9,29.88,NE,36,5.0,7.0,70,0.00,,,0.00,0,Wunderground v.1.15,2013-03-17 00:40:00,
2013-03-16 20:45:00,52.1,42.6,29.89,ENE,59,7.0,8.0,70,0.00,,,0.00,0,Wunderground v.1.15,2013-03-17 00:45:00,
2013-03-16 20:50:00,51.8,42.7,29.89,ENE,62,5.0,8.0,71,0.00,,,0.00,0,Wunderground v.1.15,2013-03-17 00:50:00,
2013-03-16 20:55:00,51.5,42.4,29.89,NE,53,5.0,8.0,71,0.00,,,0.00,0,Wunderground v.1.15,2013-03-17 00:55:00,
2013-03-16 21:00:00,51.4,42.7,29.89,ENE,75,4.0,7.0,72,0.00,,,0.00,0,Wunderground v.1.15,2013-03-17 01:00:00,
2013-03-16 21:05:00,51.3,42.6,29.89,ENE,63,5.0,7.0,72,0.00,,,0.00,0,Wunderground v.1.15,2013-03-17 01:05:00,
2013-03-16 21:10:00,51.2,42.5,29.89,NE,40,4.0,6.0,72,0.00,,,0.00,0,Wunderground v.1.15,2013-03-17 01:10:00,
2013-03-16 21:15:00,51.2,42.5,29.90,NE,37,6.0,11.0,72,0.00,,,0.00,0,Wunderground v.1.15,2013-03-17 01:15:00,
2013-03-16 21:20:00,51.1,42.4,29.90,NE,51,5.0,7.0,72,0.00,,,0.00,0,Wunderground v.1.15,2013-03-17 01:20:00,
2013-03-16 21:25:00,51.0,42.3,29.90,NE,34,7.0,11.0,72,0.00,,,0.00,0,Wunderground v.1.15,2013-03-17 01:25:00,
2013-03-16 21:30:00,50.9,42.2,29.92,NE,36,7.0,10.0,72,0.00,,,0.00,0,Wunderground v.1.15,2013-03-17 01:30:00,
2013-03-16 21:35:00,50.8,42.1,29.92,NNE,27,6.0,10.0,72,0.00,,,0.00,0,Wunderground v.1.15,2013-03-17 01:35:00,
2013-03-16 21:40:00,50.6,41.9,29.93,NE,41,6.0,8.0,72,0.00,,,0.00,0,Wunderground v.1.15,2013-03-17 01:40:00,
2013-03-16 21:45:00,50.5,41.8,29.94,NNE,13,8.0,14.0,72,0.00,,,0.00,0,Wunderground v.1.15,2013-03-17 01:45:00,
2013-03-16 21:50:00,50.2,41.5,29.94,NE,36,7.0,9.0,72,0.00,,,0.00,0,Wunderground v.1.15,2013-03-17 01:50:00,
2013-03-16 21:55:00,50.0,41.7,29.94,NNE,15,12.0,12.0,73,0.00,,,0.00,0,Wunderground v.1.15,2013-03-17 01:55:00,
2013-03-16 22:00:00,49.9,41.6,29.95,NE,36,7.0,10.0,73,0.00,,,0.00,0,Wunderground v.1.15,2013-03-17 02:00:00,
2013-03-16 22:05:00,49.7,41.4,29.95,NNE,32,8.0,13.0,73,0.00,,,0.00,0,Wunderground v.1.15,2013-03-17 02:05:00,
2013-03-16 22:10:00,49.6,41.3,29.95,NE,40,6.0,8.0,73,0.00,,,0.00,0,Wunderground v.1.15,2013-03-17 02:10:00,
2013-03-16 22:15:00,49.5,41.2,29.95,NE,34,7.0,9.0,73,0.00,,,0.00,0,Wunderground v.1.15,2013-03-17 02:15:00,
2013-03-16 22:20:00,49.4,41.1,29.95,NNE,32,5.0,7.0,73,0.00,,,0.00,0,Wunderground v.1.15,2013-03-17 02:20:00,
2013-03-16 22:25:00,49.3,41.4,29.95,NE,47,8.0,11.0,74,0.00,,,0.00,0,Wunderground v.1.15,2013-03-17 02:25:00,
2013-03-16 22:30:00,49.2,41.3,29.95,NE,44,4.0,6.0,74,0.00,,,0.00,0,Wunderground v.1.15,2013-03-17 02:30:00,
2013-03-16 22:35:00,49.1,41.5,29.96,NE,46,5.0,7.0,75,0.00,,,0.00,0,Wunderground v.1.15,2013-03-17 02:35:00,
2013-03-16 22:40:00,49.0,41.4,29.96,NE,56,4.0,5.0,75,0.00,,,0.00,0,Wunderground v.1.15,2013-03-17 02:40:00,
2013-03-16 22:45:00,48.8,41.2,29.95,NE,43,6.0,8.0,75,0.00,,,0.00,0,Wunderground v.1.15,2013-03-17 02:45:00,
2013-03-16 22:50:00,48.6,41.4,29.95,ENE,60,8.0,8.0,76,0.00,,,0.00,0,Wunderground v.1.15,2013-03-17 02:50:00,
2013-03-16 22:55:00,48.3,41.1,29.95,NE,54,4.0,10.0,76,0.00,,,0.00,0,Wunderground v.1.15,2013-03-17 02:55:00,
2013-03-16 23:00:00,48.1,41.2,29.95,NE,49,8.0,8.0,77,0.00,,,0.00,0,Wunderground v.1.15,2013-03-17 03:00:00,
2013-03-16 23:05:00,47.9,41.4,29.95,NE,54,5.0,8.0,78,0.00,,,0.00,0,Wunderground v.1.15,2013-03-17 03:05:00,
2013-03-16 23:10:00,47.8,41.6,29.95,NE,46,3.0,7.0,79,0.00,,,0.00,0,Wunderground v.1.15,2013-03-17 03:10:00,
2013-03-16 23:15:00,47.6,41.7,29.95,NE,53,3.0,7.0,80,0.00,,,0.00,0,Wunderground v.1.15,2013-03-17 03:15:00,
2013-03-16 23:20:00,47.4,41.5,29.95,NE,51,3.0,6.0,80,0.00,,,0.00,0,Wunderground v.1.15,2013-03-17 03:20:00,
2013-03-16 23:25:00,47.2,41.7,29.95,ENE,61,5.0,8.0,81,0.00,,,0.00,0,Wunderground v.1.15,2013-03-17 03:25:00,
2013-03-16 23:30:00,47.0,41.1,29.95,ENE,65,4.0,5.0,80,0.00,,,0.00,0,Wunderground v.1.15,2013-03-17 03:30:00,
2013-03-16 23:35:00,46.9,41.4,29.95,NE,44,6.0,6.0,81,0.00,,,0.00,0,Wunderground v.1.15,2013-03-17 03:35:00,
2013-03-16 23:40:00,46.7,41.5,29.95,NE,49,3.0,5.0,82,0.00,,,0.00,0,Wunderground v.1.15,2013-03-17 03:40:00,
2013-03-16 23:45:00,46.5,41.3,29.95,NE,50,6.0,7.0,82,0.00,,,0.00,0,Wunderground v.1.15,2013-03-17 03:45:00,
2013-03-16 23:50:00,46.4,41.2,29.95,NE,53,4.0,8.0,82,0.00,,,0.00,0,Wunderground v.1.15,2013-03-17 03:50:00,
2013-03-16 23:55:00,46.3,41.4,29.96,ENE,57,5.0,8.0,83,0.00,,,0.00,0,Wunderground v.1.15,2013-03-17 03:55:00,